Glen Rose, Texas
Current Conditions -  °F | °C
As of 8:35 PM on Friday 24 Oct 2014 (Local Time) from KGDJ Reporting Station
Clear Clear  
Wind Chill: 76°   Ceiling: Unl
Heat Index: 78°   Visibility: 10mi
Dew Point: 61°   Wind: 7mph
Humidity: 59%   Direction: 130°SE
Pressure: 30.1"   Gusts: NA
Location:  32.23°N, 97.76°W
Report Text: KGDJ 250135Z AUTO 13006KT 10SM CLR 25/16 A3010 RMK AO2 T02460161
Loading
Personal Weather Stations






























Interactive Weather Map
Tropical Storm Tracking
New forecast layout! Learn more

10-Day Weather Forecast

Advertisements
Track Severe Weather on mobile